createdAt,value
2023-01-20T10:56:03.236Z,12.46
2023-01-20T10:57:15.900Z,12.68
2023-01-20T10:58:21.192Z,12.56
2023-01-20T10:59:29.600Z,12.66
2023-01-20T11:00:33.621Z,12.63
2023-01-20T11:01:37.071Z,12.56
2023-01-20T11:02:41.375Z,12.56
2023-01-20T11:03:45.827Z,12.51
2023-01-20T11:04:51.938Z,12.58
2023-01-20T11:05:55.311Z,12.56
2023-01-20T11:07:01.929Z,12.50
2023-01-20T11:08:18.413Z,12.56
2023-01-20T11:09:25.564Z,12.67
2023-01-20T11:10:29.506Z,12.77
2023-01-20T11:11:32.910Z,12.90
2023-01-20T11:12:38.500Z,12.87
2023-01-20T11:13:40.853Z,12.99
2023-01-20T11:14:45.089Z,12.98
2023-01-20T11:15:50.255Z,13.16
2023-01-20T11:16:56.229Z,13.26
2023-01-20T11:18:16.624Z,13.07
2023-01-20T11:19:22.187Z,12.96
2023-01-20T11:20:28.742Z,12.91
2023-01-20T11:21:37.191Z,13.01
2023-01-20T11:22:45.191Z,12.95
2023-01-20T11:23:50.717Z,12.88
2023-01-20T11:24:55.487Z,12.84
2023-01-20T11:25:59.502Z,13.02
2023-01-20T11:27:07.800Z,12.95
2023-01-20T11:28:18.858Z,12.86
2023-01-20T11:29:23.278Z,12.82
2023-01-20T11:30:28.679Z,12.90
2023-01-20T11:31:40.956Z,12.87
2023-01-20T11:32:45.227Z,12.88
2023-01-20T11:33:58.856Z,12.81
2023-01-20T11:35:03.381Z,12.90
2023-01-20T11:36:07.441Z,13.06
2023-01-20T11:37:13.940Z,12.93
2023-01-20T11:38:24.442Z,12.87
2023-01-20T11:39:33.601Z,12.80
2023-01-20T11:40:36.697Z,12.88
2023-01-20T11:41:40.133Z,12.89
2023-01-20T11:42:45.242Z,13.02
2023-01-20T11:43:49.282Z,12.91
2023-01-20T11:44:54.105Z,12.98
2023-01-20T11:46:10.842Z,13.04
2023-01-20T11:47:24.244Z,12.98
2023-01-20T11:48:27.740Z,13.04
2023-01-20T11:49:30.613Z,13.23
2023-01-20T11:50:42.380Z,13.15
2023-01-20T11:51:50.616Z,13.27
2023-01-20T11:52:53.033Z,13.37
2023-01-20T11:54:10.776Z,13.37
2023-01-20T11:55:20.621Z,13.30
2023-01-20T11:56:29.099Z,13.30
2023-01-20T11:57:32.128Z,13.34
2023-01-20T11:58:37.522Z,13.40
2023-01-20T11:59:42.798Z,13.39
2023-01-20T12:00:46.612Z,13.36
2023-01-20T12:01:52.214Z,13.33
2023-01-20T12:03:01.371Z,13.36
2023-01-20T12:04:15.015Z,13.26
2023-01-20T12:05:25.182Z,13.22
2023-01-20T12:06:36.512Z,13.31
2023-01-20T12:07:40.954Z,13.33
2023-01-20T12:08:47.599Z,13.39
2023-01-20T12:09:54.150Z,13.41
2023-01-20T12:11:00.284Z,13.51
2023-01-20T12:12:05.635Z,13.45
2023-01-20T12:13:12.591Z,13.46
2023-01-20T12:14:29.168Z,13.35
2023-01-20T12:15:34.209Z,13.21
2023-01-20T12:16:38.514Z,13.28
2023-01-20T12:17:46.247Z,13.24
2023-01-20T12:19:01.695Z,13.13
2023-01-20T12:20:07.146Z,13.03
2023-01-20T12:21:21.201Z,13.19
2023-01-20T12:22:26.369Z,13.06
2023-01-20T12:23:34.674Z,12.99
2023-01-20T12:24:43.200Z,13.07
2023-01-20T12:25:50.888Z,13.15
2023-01-20T12:26:54.564Z,13.06
2023-01-20T12:28:04.658Z,13.20
2023-01-20T12:29:09.236Z,13.16
2023-01-20T12:30:23.089Z,13.21
2023-01-20T12:31:31.265Z,13.09
2023-01-20T12:32:34.376Z,13.12
2023-01-20T12:33:39.540Z,13.05
2023-01-20T12:34:43.803Z,13.06
2023-01-20T12:35:48.960Z,12.97
2023-01-20T12:37:00.120Z,13.02
2023-01-20T12:38:06.509Z,12.91
2023-01-20T12:39:20.678Z,12.75
2023-01-20T12:40:29.720Z,12.65
2023-01-20T12:41:44.535Z,12.48
2023-01-20T12:42:58.112Z,12.44
2023-01-20T12:44:03.203Z,12.48
2023-01-20T12:45:10.582Z,12.40
2023-01-20T12:46:28.797Z,12.39
2023-01-20T12:47:45.901Z,12.41
2023-01-20T12:49:02.353Z,12.38
2023-01-20T12:50:25.782Z,12.21
2023-01-20T12:51:29.945Z,12.18
2023-01-20T12:52:35.341Z,12.12
2023-01-20T12:53:41.867Z,12.05
2023-01-20T12:54:49.253Z,11.96
2023-01-20T12:56:14.220Z,11.90
2023-01-20T12:57:28.621Z,12.02
2023-01-20T12:58:45.482Z,12.00
2023-01-20T12:59:53.718Z,11.98
2023-01-20T13:00:58.990Z,12.00
2023-01-20T13:02:04.248Z,11.97
2023-01-20T13:03:14.901Z,11.89
2023-01-20T13:04:36.325Z,12.02
2023-01-20T13:05:43.487Z,12.02
2023-01-20T13:07:00.933Z,11.98
2023-01-20T13:08:22.772Z,11.98
2023-01-20T13:09:33.588Z,12.00
2023-01-20T13:10:50.898Z,11.98
2023-01-20T13:11:54.289Z,11.96
2023-01-20T13:13:11.572Z,11.95
2023-01-20T13:14:24.686Z,11.92
2023-01-20T13:15:30.457Z,11.91
2023-01-20T13:16:42.770Z,11.76
2023-01-20T13:18:03.829Z,11.81
2023-01-20T13:19:14.530Z,11.90
2023-01-20T13:20:25.432Z,11.94
2023-01-20T13:21:32.231Z,11.99
2023-01-20T13:22:36.599Z,11.86
2023-01-20T13:23:40.151Z,11.86
2023-01-20T13:24:45.612Z,11.90
2023-01-20T13:25:48.427Z,11.84
2023-01-20T13:26:53.110Z,11.84
2023-01-20T13:27:57.195Z,11.74
2023-01-20T13:29:02.387Z,11.75
2023-01-20T13:30:06.889Z,11.80
2023-01-20T13:31:29.303Z,11.83
2023-01-20T13:32:36.459Z,11.78
2023-01-20T13:33:41.665Z,11.58
2023-01-20T13:34:44.863Z,11.49
2023-01-20T13:35:50.758Z,11.52
2023-01-20T13:37:05.976Z,11.59
2023-01-20T13:38:11.365Z,11.52
2023-01-20T13:39:29.415Z,11.53
2023-01-20T13:40:35.258Z,11.47
2023-01-20T13:41:48.967Z,11.55
2023-01-20T13:42:51.953Z,11.44
2023-01-20T13:43:55.409Z,11.39
2023-01-20T13:45:17.166Z,11.37
2023-01-20T13:46:22.813Z,11.40
2023-01-20T13:47:43.985Z,11.29
2023-01-20T13:49:07.513Z,11.21
2023-01-20T13:50:11.952Z,11.17
2023-01-20T13:51:33.875Z,11.02
2023-01-20T13:52:48.617Z,10.92
2023-01-20T13:53:52.139Z,10.97
2023-01-20T13:54:57.310Z,10.92
2023-01-20T13:56:01.890Z,11.01
2023-01-20T13:57:27.258Z,10.92
2023-01-20T13:58:35.590Z,10.91
2023-01-20T13:59:38.491Z,10.70
2023-01-20T14:00:43.035Z,10.66
2023-01-20T14:01:45.337Z,10.61
2023-01-20T14:02:49.940Z,10.66
2023-01-20T14:04:04.410Z,10.67
2023-01-20T14:05:13.466Z,10.63
2023-01-20T14:06:18.852Z,10.78
2023-01-20T14:07:23.148Z,10.79
2023-01-20T14:08:27.759Z,10.79
2023-01-20T14:09:30.844Z,10.79
2023-01-20T14:10:35.588Z,10.76
2023-01-20T14:11:40.963Z,10.60
2023-01-20T14:12:44.354Z,10.65
2023-01-20T14:13:56.814Z,10.71
2023-01-20T14:15:02.052Z,10.69
2023-01-20T14:16:05.772Z,10.48
2023-01-20T14:17:10.806Z,10.51
2023-01-20T14:18:15.455Z,10.49
2023-01-20T14:19:27.468Z,10.51
2023-01-20T14:20:31.459Z,10.48
2023-01-20T14:21:44.055Z,10.51
2023-01-20T14:22:47.766Z,10.51
2023-01-20T14:23:50.538Z,10.49
2023-01-20T14:24:54.687Z,10.44
2023-01-20T14:25:58.594Z,10.44
2023-01-20T14:27:23.243Z,10.44
2023-01-20T14:28:26.808Z,10.34
2023-01-20T14:29:29.922Z,10.21
2023-01-20T14:30:33.140Z,10.17
2023-01-20T14:32:52.486Z,10.15
2023-01-20T14:33:57.482Z,10.15
2023-01-20T14:35:02.362Z,10.17
2023-01-20T14:36:09.128Z,10.14
2023-01-20T14:37:21.260Z,10.21
2023-01-20T14:38:25.611Z,10.01
2023-01-20T14:39:30.058Z,9.94
2023-01-20T14:40:35.979Z,9.91
2023-01-20T14:41:51.458Z,9.87
2023-01-20T14:43:00.009Z,9.79
2023-01-20T14:44:03.606Z,9.81
2023-01-20T14:45:10.661Z,9.97
2023-01-20T14:46:12.986Z,9.97
2023-01-20T14:47:16.848Z,9.94
2023-01-20T14:48:34.470Z,9.99
2023-01-20T14:49:31.977Z,9.80
2023-01-20T14:50:35.656Z,9.66
2023-01-20T14:51:39.319Z,9.67
2023-01-20T14:52:43.166Z,9.77
2023-01-20T14:53:47.911Z,9.80
2023-01-20T14:54:52.817Z,9.74
2023-01-20T14:56:12.330Z,9.76
2023-01-20T14:57:22.387Z,9.78
2023-01-20T14:58:25.939Z,9.65
2023-01-20T14:59:28.363Z,9.56
2023-01-20T15:00:37.266Z,9.53
2023-01-20T15:01:43.338Z,9.47
2023-01-20T15:03:05.206Z,9.53
2023-01-20T15:04:01.452Z,9.54
2023-01-20T15:05:23.736Z,9.50
2023-01-20T15:06:26.730Z,9.64
2023-01-20T15:07:29.081Z,9.65
2023-01-20T15:08:37.176Z,9.51
2023-01-20T15:09:42.340Z,9.43
2023-01-20T15:10:46.588Z,9.40
2023-01-20T15:11:50.298Z,9.42
2023-01-20T15:12:54.532Z,9.42
2023-01-20T15:14:02.557Z,9.41
2023-01-20T15:15:14.841Z,9.41
2023-01-20T15:16:19.222Z,9.41
2023-01-20T15:17:22.579Z,9.41
2023-01-20T15:18:26.799Z,9.44
2023-01-20T15:19:33.751Z,9.37
2023-01-20T15:20:38.697Z,9.35
2023-01-20T15:21:45.632Z,9.32
2023-01-20T15:22:49.481Z,9.40
2023-01-20T15:23:53.715Z,9.30
2023-01-20T15:24:59.716Z,9.30
2023-01-20T15:26:10.447Z,9.22
2023-01-20T15:27:27.386Z,9.17
2023-01-20T15:28:30.818Z,9.12
2023-01-20T15:29:35.722Z,9.24
2023-01-20T15:30:39.159Z,9.17
2023-01-20T15:31:42.479Z,9.23
2023-01-20T15:32:47.921Z,9.15
2023-01-20T15:33:51.293Z,9.04
2023-01-20T15:34:54.535Z,9.10
2023-01-20T15:35:59.531Z,8.96
2023-01-20T15:37:06.796Z,9.08
2023-01-20T15:38:13.225Z,9.04
2023-01-20T15:39:17.576Z,8.90
2023-01-20T15:40:23.202Z,8.75
2023-01-20T15:41:26.402Z,8.79
2023-01-20T15:42:30.169Z,8.67
2023-01-20T15:43:33.419Z,8.71
2023-01-20T15:44:37.513Z,8.84
2023-01-20T15:45:42.228Z,8.75
2023-01-20T15:46:45.623Z,8.75
2023-01-20T15:47:50.933Z,8.67
2023-01-20T15:48:54.349Z,8.64
2023-01-20T15:49:58.785Z,8.79
2023-01-20T15:51:01.593Z,8.72
2023-01-20T15:52:05.585Z,8.73
2023-01-20T15:53:08.237Z,8.52
2023-01-20T15:54:15.329Z,8.45
2023-01-20T15:55:19.776Z,8.59
2023-01-20T15:56:30.568Z,8.69
2023-01-20T15:57:34.817Z,8.60
2023-01-20T15:58:37.995Z,8.60
2023-01-20T15:59:43.421Z,8.52
2023-01-20T16:00:46.914Z,8.60
2023-01-20T16:01:51.970Z,8.54
2023-01-20T16:02:55.495Z,8.70
2023-01-20T16:03:58.783Z,8.66
2023-01-20T16:05:02.259Z,8.65
2023-01-20T16:06:06.395Z,8.36
2023-01-20T16:07:16.781Z,8.36
2023-01-20T16:08:22.078Z,8.49
2023-01-20T16:09:26.733Z,8.45
2023-01-20T16:10:30.061Z,8.25
2023-01-20T16:11:32.900Z,8.34
2023-01-20T16:12:35.380Z,8.32
2023-01-20T16:13:38.645Z,8.37
2023-01-20T16:14:41.121Z,8.43
2023-01-20T16:15:45.655Z,8.44
2023-01-20T16:16:49.068Z,8.34
2023-01-20T16:17:52.249Z,8.41
2023-01-20T16:18:55.581Z,8.32
2023-01-20T16:19:58.118Z,8.35
2023-01-20T16:21:02.558Z,8.39
2023-01-20T16:22:08.556Z,8.38
2023-01-20T16:23:12.607Z,8.33
2023-01-20T16:24:16.857Z,8.26
2023-01-20T16:25:19.710Z,8.33
2023-01-20T16:26:24.689Z,8.32
2023-01-20T16:27:27.973Z,8.20
2023-01-20T16:28:30.639Z,8.25
2023-01-20T16:29:36.040Z,8.25
2023-01-20T16:30:39.752Z,8.15
2023-01-20T16:31:43.069Z,8.21
2023-01-20T16:32:47.972Z,8.19
2023-01-20T16:33:52.877Z,8.09
2023-01-20T16:34:56.171Z,8.03
2023-01-20T16:35:59.676Z,8.19
2023-01-20T16:37:05.468Z,8.28
2023-01-20T16:38:10.407Z,8.34
2023-01-20T16:39:14.789Z,8.30
2023-01-20T16:40:21.633Z,8.24
2023-01-20T16:41:26.074Z,8.14
2023-01-20T16:42:29.191Z,8.10
2023-01-20T16:43:32.254Z,8.13
2023-01-20T16:44:35.540Z,8.11
2023-01-20T16:45:39.213Z,8.09
2023-01-20T16:46:41.830Z,8.16
2023-01-20T16:47:44.326Z,8.07
2023-01-20T16:48:47.892Z,8.06
2023-01-20T16:49:52.886Z,8.12
2023-01-20T16:51:00.384Z,8.07
2023-01-20T16:52:02.800Z,8.09
2023-01-20T16:53:05.985Z,8.15
2023-01-20T16:54:11.053Z,8.10
2023-01-20T16:55:14.578Z,8.10
2023-01-20T16:56:22.557Z,8.09
2023-01-20T16:57:27.002Z,8.08
2023-01-20T16:58:33.114Z,7.86
2023-01-20T16:59:36.830Z,7.88
2023-01-20T17:00:39.658Z,7.95
2023-01-20T17:01:44.344Z,7.86
2023-01-20T17:02:52.827Z,7.79
2023-01-20T17:03:58.928Z,7.81
2023-01-20T17:05:03.974Z,7.84
2023-01-20T17:06:12.605Z,7.81
2023-01-20T17:07:16.313Z,7.89
2023-01-20T17:08:19.816Z,7.88
2023-01-20T17:09:23.067Z,7.93
2023-01-20T17:10:27.043Z,7.83
2023-01-20T17:11:32.002Z,7.56
2023-01-20T17:12:35.715Z,7.38
2023-01-20T17:13:40.057Z,7.56
2023-01-20T17:14:43.404Z,7.67
2023-01-20T17:15:45.813Z,7.70
2023-01-20T17:16:52.786Z,7.65
2023-01-20T17:17:59.195Z,7.70
2023-01-20T17:19:07.418Z,7.65
2023-01-20T17:20:12.318Z,7.70
2023-01-20T17:21:15.058Z,7.73
2023-01-20T17:22:17.915Z,7.67
2023-01-20T17:23:23.409Z,7.50
2023-01-20T17:24:28.794Z,7.56
2023-01-20T17:25:34.833Z,7.63
2023-01-20T17:26:38.514Z,7.57
2023-01-20T17:27:41.915Z,7.56
2023-01-20T17:28:46.778Z,7.55
2023-01-20T17:29:52.899Z,7.61
2023-01-20T17:30:58.264Z,7.54
2023-01-20T17:32:01.782Z,7.56
2023-01-20T17:33:05.176Z,7.51
2023-01-20T17:34:10.466Z,7.36
2023-01-20T17:35:17.228Z,7.30
2023-01-20T17:36:20.001Z,7.25
2023-01-20T17:37:23.306Z,7.18
2023-01-20T17:38:26.677Z,7.11
2023-01-20T17:39:32.784Z,7.10
2023-01-20T17:40:37.343Z,7.16
2023-01-20T17:41:44.707Z,7.14
2023-01-20T17:42:49.005Z,7.28
2023-01-20T17:43:53.504Z,7.14
2023-01-20T17:44:59.628Z,7.07
2023-01-20T17:46:04.920Z,6.98
2023-01-20T17:47:07.372Z,7.02
2023-01-20T17:48:11.688Z,6.94
2023-01-20T17:49:17.729Z,6.93
2023-01-20T17:50:21.123Z,6.89
2023-01-20T17:51:26.288Z,6.80
2023-01-20T17:52:28.542Z,6.90
2023-01-20T17:53:31.727Z,7.03
2023-01-20T17:54:36.599Z,7.02
2023-01-20T17:55:41.757Z,6.97
2023-01-20T17:56:48.196Z,6.93
2023-01-20T17:57:52.231Z,7.17
2023-01-20T17:58:55.733Z,7.14
2023-01-20T17:59:59.235Z,7.19
2023-01-20T18:01:19.494Z,7.08
2023-01-20T18:02:24.342Z,7.12
2023-01-20T18:03:27.718Z,7.01
2023-01-20T18:04:32.773Z,6.95
2023-01-20T18:05:36.602Z,6.86
2023-01-20T18:06:39.074Z,6.84
2023-01-20T18:07:43.152Z,6.83
2023-01-20T18:08:48.324Z,6.76
2023-01-20T18:09:50.718Z,6.67
2023-01-20T18:10:53.282Z,6.80
2023-01-20T18:11:56.694Z,6.83
2023-01-20T18:12:59.049Z,6.81
2023-01-20T18:14:03.483Z,6.63
2023-01-20T18:15:09.356Z,6.53
2023-01-20T18:16:14.549Z,6.65
2023-01-20T18:17:18.919Z,6.63
2023-01-20T18:18:22.203Z,6.48
2023-01-20T18:19:26.981Z,6.45
2023-01-20T18:20:31.311Z,6.50
2023-01-20T18:21:37.047Z,6.64
2023-01-20T18:22:45.385Z,6.69
2023-01-20T18:23:49.036Z,6.64
2023-01-20T18:24:52.336Z,6.70
2023-01-20T18:25:56.985Z,6.68
2023-01-20T18:27:00.700Z,6.66
2023-01-20T18:28:04.414Z,6.64
2023-01-20T18:29:10.767Z,6.65
2023-01-20T18:30:14.759Z,6.48
2023-01-20T18:31:19.621Z,6.60
2023-01-20T18:32:23.239Z,6.52
2023-01-20T18:33:26.648Z,6.50
2023-01-20T18:34:29.931Z,6.47
2023-01-20T18:35:32.187Z,6.50
2023-01-20T18:36:39.963Z,6.40
2023-01-20T18:37:43.071Z,6.36
2023-01-20T18:38:50.471Z,6.37
2023-01-20T18:39:54.667Z,6.33
2023-01-20T18:40:58.267Z,6.49
2023-01-20T18:42:03.258Z,6.37
2023-01-20T18:43:06.458Z,6.24
2023-01-20T18:44:09.541Z,6.35
2023-01-20T18:45:12.283Z,6.25
2023-01-20T18:46:17.748Z,6.13
2023-01-20T18:47:21.085Z,6.19
2023-01-20T18:48:26.267Z,6.20
2023-01-20T18:49:29.556Z,6.16
2023-01-20T18:50:32.837Z,6.15
2023-01-20T18:51:36.064Z,6.14
2023-01-20T18:52:39.546Z,6.03
2023-01-20T18:53:45.760Z,6.14
2023-01-20T18:54:48.813Z,6.05
2023-01-20T18:55:51.949Z,6.08
2023-01-20T18:56:55.760Z,5.99
2023-01-20T18:58:00.194Z,6.11
2023-01-20T18:59:04.440Z,6.08
2023-01-20T19:00:08.807Z,6.15
2023-01-20T19:01:14.408Z,6.09
2023-01-20T19:02:18.327Z,6.01
2023-01-20T19:04:32.919Z,6.05
2023-01-20T19:05:37.898Z,5.98
2023-01-20T19:06:43.708Z,5.99
2023-01-20T19:07:50.363Z,5.93
2023-01-20T19:08:54.054Z,5.78
2023-01-20T19:09:57.137Z,5.77
2023-01-20T19:11:01.492Z,5.85
2023-01-20T19:12:05.722Z,5.74
2023-01-20T19:13:08.063Z,5.71
2023-01-20T19:14:12.835Z,5.62
2023-01-20T19:15:16.205Z,5.59
2023-01-20T19:16:20.983Z,5.61
2023-01-20T19:17:27.456Z,5.56
2023-01-20T19:18:30.925Z,5.59
2023-01-20T19:19:34.433Z,5.60
2023-01-20T19:20:38.040Z,5.64
2023-01-20T19:21:41.135Z,5.49
2023-01-20T19:22:44.308Z,5.40
2023-01-20T19:23:50.469Z,5.42
2023-01-20T19:24:53.720Z,5.51
2023-01-20T19:26:01.830Z,5.47
2023-01-20T19:27:05.814Z,5.45
2023-01-20T19:28:09.857Z,5.38
2023-01-20T19:29:16.065Z,5.32
2023-01-20T19:30:20.655Z,5.20
2023-01-20T19:31:25.905Z,5.27
2023-01-20T19:32:29.237Z,5.25
2023-01-20T19:33:32.218Z,5.22
2023-01-20T19:34:35.646Z,5.17
2023-01-20T19:35:41.831Z,5.19
2023-01-20T19:36:44.002Z,5.15
2023-01-20T19:37:47.594Z,5.04
2023-01-20T19:38:53.979Z,5.04
2023-01-20T19:39:57.455Z,5.00
2023-01-20T19:41:09.497Z,5.12
2023-01-20T19:42:12.923Z,5.17
2023-01-20T19:43:17.339Z,5.13
2023-01-20T19:44:20.744Z,5.12
2023-01-20T19:45:23.572Z,5.14
2023-01-20T19:46:29.026Z,5.14
2023-01-20T19:47:35.438Z,5.15
2023-01-20T19:48:38.761Z,5.06
2023-01-20T19:49:42.586Z,5.04
2023-01-20T19:50:48.286Z,5.05
2023-01-20T19:51:50.798Z,4.84
2023-01-20T19:52:55.279Z,4.87
2023-01-20T19:53:59.282Z,4.91
2023-01-20T19:55:03.656Z,4.81
2023-01-20T19:56:08.452Z,4.94
2023-01-20T19:57:11.666Z,4.84
2023-01-20T19:58:16.213Z,4.92
2023-01-20T19:59:23.284Z,4.89
2023-01-20T20:00:26.501Z,4.87
2023-01-20T20:01:31.876Z,5.01
2023-01-20T20:02:36.549Z,4.98
2023-01-20T20:03:40.325Z,4.76
2023-01-20T20:04:43.836Z,4.81
2023-01-20T20:05:46.610Z,4.88
2023-01-20T20:06:50.117Z,4.83
2023-01-20T20:07:55.758Z,4.81
2023-01-20T20:09:00.465Z,4.84
2023-01-20T20:10:04.346Z,4.76
2023-01-20T20:11:10.304Z,4.66
2023-01-20T20:12:14.131Z,4.65
2023-01-20T20:13:21.068Z,4.75
2023-01-20T20:14:24.208Z,4.77
2023-01-20T20:15:30.717Z,4.76
2023-01-20T20:16:37.357Z,4.80
2023-01-20T20:17:40.935Z,4.81
2023-01-20T20:18:43.702Z,4.75
2023-01-20T20:19:48.933Z,4.70
2023-01-20T20:20:52.350Z,4.67
2023-01-20T20:21:57.057Z,4.53
2023-01-20T20:23:00.331Z,4.54
2023-01-20T20:24:06.090Z,4.70
2023-01-20T20:25:11.538Z,4.84
2023-01-20T20:26:15.830Z,4.59
2023-01-20T20:27:19.687Z,4.64
2023-01-20T20:28:24.561Z,4.45
2023-01-20T20:29:29.863Z,4.62
2023-01-20T20:30:33.234Z,4.73
2023-01-20T20:31:37.207Z,4.53
2023-01-20T20:32:40.975Z,4.49
2023-01-20T20:33:46.353Z,4.50
2023-01-20T20:34:49.758Z,4.56
2023-01-20T20:35:52.896Z,4.66
2023-01-20T20:36:57.418Z,4.49
2023-01-20T20:38:00.797Z,4.55
2023-01-20T20:39:12.859Z,4.60
2023-01-20T20:40:17.116Z,4.39
2023-01-20T20:41:20.392Z,4.53
2023-01-20T20:42:23.699Z,4.28
2023-01-20T20:43:28.660Z,4.30
2023-01-20T20:44:31.900Z,4.27
2023-01-20T20:45:35.243Z,4.29
2023-01-20T20:46:38.997Z,4.15
2023-01-20T20:47:41.316Z,4.32
2023-01-20T20:48:44.622Z,4.38
2023-01-20T20:49:48.231Z,4.19
2023-01-20T20:50:52.599Z,4.29
2023-01-20T20:51:55.934Z,4.32
2023-01-20T20:53:00.659Z,4.33
2023-01-20T20:54:04.444Z,4.34
2023-01-20T20:55:07.215Z,4.40
2023-01-20T20:56:13.259Z,4.47
2023-01-20T20:57:15.897Z,4.32
2023-01-20T20:58:19.079Z,4.29
2023-01-20T20:59:24.474Z,4.24
2023-01-20T21:00:28.919Z,4.35
2023-01-20T21:01:34.589Z,4.35
2023-01-20T21:02:39.919Z,4.11
2023-01-20T21:03:44.270Z,4.22
2023-01-20T21:04:47.418Z,4.25
2023-01-20T21:05:50.933Z,4.29
2023-01-20T21:06:54.026Z,4.24
2023-01-20T21:07:57.203Z,4.24
2023-01-20T21:09:01.376Z,4.16
2023-01-20T21:10:04.526Z,4.12
2023-01-20T21:11:07.623Z,4.31
2023-01-20T21:12:10.293Z,4.21
2023-01-20T21:13:13.803Z,4.21
2023-01-20T21:14:20.111Z,4.19
2023-01-20T21:15:22.881Z,4.18
2023-01-20T21:16:25.682Z,4.08
2023-01-20T21:17:30.063Z,3.97
2023-01-20T21:18:34.793Z,4.10
2023-01-20T21:19:37.321Z,4.06
2023-01-20T21:20:41.257Z,4.15
2023-01-20T21:21:44.658Z,4.05
2023-01-20T21:22:47.955Z,4.10
2023-01-20T21:23:52.401Z,4.19
2023-01-20T21:24:55.694Z,4.14
2023-01-20T21:26:02.228Z,4.18
2023-01-20T21:27:05.732Z,4.22
2023-01-20T21:28:09.551Z,4.22
2023-01-20T21:29:12.425Z,4.33
2023-01-20T21:30:16.026Z,4.11
2023-01-20T21:31:23.622Z,4.10
2023-01-20T21:32:27.122Z,4.14
2023-01-20T21:33:29.575Z,4.20
2023-01-20T21:34:32.891Z,4.07
2023-01-20T21:35:39.404Z,3.92
2023-01-20T21:36:42.957Z,3.87
2023-01-20T21:37:48.205Z,3.89
2023-01-20T21:38:51.819Z,3.92
2023-01-20T21:39:56.247Z,3.87
2023-01-20T21:41:02.058Z,3.63
2023-01-20T21:42:07.515Z,3.69
2023-01-20T21:43:21.705Z,3.71
2023-01-20T21:44:34.210Z,3.70
2023-01-20T21:45:39.473Z,3.69
2023-01-20T21:46:42.897Z,3.64
2023-01-20T21:47:48.156Z,3.63
2023-01-20T21:49:08.882Z,3.58
2023-01-20T21:50:32.362Z,3.64
2023-01-20T21:51:54.120Z,3.77
2023-01-20T21:52:58.367Z,3.84
2023-01-20T21:54:01.652Z,3.68
2023-01-20T21:55:07.674Z,3.70
2023-01-20T21:56:12.852Z,3.59
2023-01-20T21:57:16.257Z,3.72
2023-01-20T21:58:19.549Z,3.72
2023-01-20T21:59:23.365Z,3.77
2023-01-20T22:00:26.783Z,3.62
2023-01-20T22:01:30.782Z,3.56
2023-01-20T22:02:34.094Z,3.43
2023-01-20T22:03:37.806Z,3.54
2023-01-20T22:04:42.630Z,3.42
2023-01-20T22:05:45.341Z,3.53
2023-01-20T22:06:47.684Z,3.56
2023-01-20T22:07:51.870Z,3.41
2023-01-20T22:08:54.586Z,3.40
2023-01-20T22:09:58.337Z,3.41
2023-01-20T22:11:03.711Z,3.47
2023-01-20T22:12:07.388Z,3.49
2023-01-20T22:13:10.487Z,3.37
2023-01-20T22:14:12.950Z,3.47
2023-01-20T22:15:16.348Z,3.48
2023-01-20T22:16:19.904Z,3.36
2023-01-20T22:17:23.072Z,3.36
2023-01-20T22:18:25.823Z,3.42
2023-01-20T22:19:30.118Z,3.44
2023-01-20T22:20:34.539Z,3.21
2023-01-20T22:21:38.865Z,3.15
2023-01-20T22:22:42.252Z,3.12
2023-01-20T22:23:46.961Z,3.13
2023-01-20T22:24:51.032Z,3.11
2023-01-20T22:25:53.919Z,3.06
2023-01-20T22:26:57.112Z,3.14
2023-01-20T22:28:01.729Z,3.15
2023-01-20T22:29:07.739Z,2.97
2023-01-20T22:30:13.486Z,3.17
2023-01-20T22:31:20.932Z,3.14
2023-01-20T22:32:23.406Z,3.21
2023-01-20T22:33:27.014Z,3.18
2023-01-20T22:34:29.986Z,3.21
2023-01-20T22:35:34.023Z,3.28
2023-01-20T22:36:37.742Z,3.29
2023-01-20T22:37:42.311Z,3.21
2023-01-20T22:38:46.841Z,3.18
2023-01-20T22:39:51.386Z,3.20
2023-01-20T22:40:55.005Z,3.21
2023-01-20T22:41:58.345Z,3.16
2023-01-20T22:43:01.899Z,3.12
2023-01-20T22:44:04.364Z,3.05
2023-01-20T22:45:12.567Z,3.04
2023-01-20T22:46:17.897Z,3.07
2023-01-20T22:47:22.500Z,3.17
2023-01-20T22:48:26.663Z,3.14
2023-01-20T22:49:29.397Z,3.12
2023-01-20T22:50:34.337Z,3.02
2023-01-20T22:51:40.671Z,3.11
2023-01-20T22:52:49.695Z,2.92
2023-01-20T22:53:53.979Z,2.87
2023-01-20T22:54:57.272Z,2.98
2023-01-20T22:56:07.061Z,2.87
2023-01-20T22:57:10.225Z,2.90
2023-01-20T22:58:12.804Z,2.89
2023-01-20T22:59:19.389Z,2.93
2023-01-20T23:00:25.035Z,2.91
2023-01-20T23:01:30.702Z,3.01
2023-01-20T23:02:35.231Z,3.04
2023-01-20T23:03:38.897Z,3.02
2023-01-20T23:04:42.580Z,3.12
2023-01-20T23:05:54.482Z,2.95
2023-01-20T23:06:57.969Z,2.83
2023-01-20T23:08:01.479Z,2.96
2023-01-20T23:09:08.670Z,3.00
2023-01-20T23:10:14.701Z,2.75
2023-01-20T23:11:22.224Z,2.76
2023-01-20T23:12:26.567Z,2.74
2023-01-20T23:13:31.467Z,2.75
2023-01-20T23:14:39.434Z,2.71
2023-01-20T23:15:44.472Z,2.86
2023-01-20T23:16:48.821Z,2.90
2023-01-20T23:17:52.135Z,2.80
2023-01-20T23:18:54.499Z,2.71
2023-01-20T23:19:57.998Z,2.77
2023-01-20T23:21:02.533Z,2.68
2023-01-20T23:22:05.863Z,2.64
2023-01-20T23:23:12.157Z,2.65
2023-01-20T23:24:15.351Z,2.82
2023-01-20T23:25:18.760Z,2.74
2023-01-20T23:26:22.784Z,2.68
2023-01-20T23:27:26.298Z,2.76
2023-01-20T23:28:29.691Z,2.82
2023-01-20T23:29:35.045Z,2.72
2023-01-20T23:30:39.217Z,2.70
2023-01-20T23:31:42.627Z,2.72
2023-01-20T23:32:47.999Z,2.67
2023-01-20T23:33:52.240Z,2.75
2023-01-20T23:34:55.735Z,2.68
2023-01-20T23:36:08.937Z,2.66
2023-01-20T23:37:11.409Z,2.71
2023-01-20T23:38:14.708Z,2.78
2023-01-20T23:39:22.080Z,2.67
2023-01-20T23:40:26.942Z,2.57
2023-01-20T23:41:32.652Z,2.63
2023-01-20T23:42:37.084Z,2.56
2023-01-20T23:43:41.022Z,2.60
2023-01-20T23:44:45.861Z,2.58
2023-01-20T23:45:49.408Z,2.76
2023-01-20T23:46:52.053Z,2.66
2023-01-20T23:47:55.880Z,2.77
2023-01-20T23:48:59.146Z,2.75
2023-01-20T23:50:04.052Z,2.80
2023-01-20T23:51:08.250Z,2.83
2023-01-20T23:52:11.871Z,2.66
2023-01-20T23:53:14.125Z,2.82
2023-01-20T23:54:17.737Z,2.77
2023-01-20T23:55:21.652Z,2.79
2023-01-20T23:56:25.458Z,2.90
2023-01-20T23:57:28.873Z,2.87
2023-01-20T23:58:33.216Z,2.91
2023-01-20T23:59:38.447Z,2.93
